Time;durP1;ratioP1;P1;durP2;ratioP2;P2;SDS_P1;SDS_P2;PMS_P1;PMS_P2;Temp;Humidity;BMP_temperature;BMP_pressure;BME280_temperature;BME280_humidity;BME280_pressure;Samples;Min_cycle;Max_cycle;Signal;HPM_P1;HPM_P2
2022/06/11 00:00:15;;;;;;;4.80;1.63;;;27.50;51.20;;;;;;4921334;28;89084;-75
2022/06/11 00:02:43;;;;;;;2.60;1.57;;;27.50;51.20;;;;;;4920276;28;88681;-75
2022/06/11 00:05:12;;;;;;;3.83;1.57;;;27.50;51.20;;;;;;4928747;28;89592;-75
2022/06/11 00:07:40;;;;;;;3.00;2.13;;;27.50;51.30;;;;;;4940088;28;89408;-75
2022/06/11 00:10:09;;;;;;;3.90;2.00;;;27.50;51.30;;;;;;4930229;28;88865;-75
2022/06/11 00:12:37;;;;;;;2.93;1.77;;;27.50;51.30;;;;;;4921341;28;88345;-75
2022/06/11 00:15:07;;;;;;;4.60;2.30;;;27.50;51.20;;;;;;4920722;28;90648;-75
2022/06/11 00:17:36;;;;;;;2.67;1.73;;;27.50;51.30;;;;;;4919145;28;90220;-77
2022/06/11 00:20:05;;;;;;;3.83;1.93;;;27.50;51.40;;;;;;4920828;28;88504;-77
2022/06/11 00:22:35;;;;;;;3.87;1.90;;;27.60;51.20;;;;;;4920719;28;88338;-77
2022/06/11 00:25:04;;;;;;;2.97;1.27;;;27.70;51.10;;;;;;4927769;28;90771;-78
2022/06/11 00:27:32;;;;;;;4.50;1.70;;;27.70;51.10;;;;;;4926953;28;88878;-78
2022/06/11 00:30:00;;;;;;;1.80;1.27;;;27.60;51.10;;;;;;4928267;28;88545;-77
2022/06/11 00:32:29;;;;;;;1.97;1.50;;;27.60;51.10;;;;;;4923851;28;88308;-77
2022/06/11 00:35:01;;;;;;;2.27;1.20;;;27.60;51.20;;;;;;4933419;28;89888;-77
2022/06/11 00:37:29;;;;;;;2.63;1.33;;;27.60;51.20;;;;;;4929958;28;90168;-77
2022/06/11 00:39:58;;;;;;;2.50;1.53;;;27.50;51.10;;;;;;4922863;28;88432;-77
2022/06/11 00:42:28;;;;;;;3.40;1.47;;;27.50;51.10;;;;;;4923687;28;88737;-77
2022/06/11 00:45:23;;;;;;;1.73;1.30;;;27.50;51.20;;;;;;4923504;28;89751;-79
2022/06/11 00:47:54;;;;;;;2.63;1.50;;;27.40;51.20;;;;;;4923137;28;92235;-78
2022/06/11 00:50:25;;;;;;;1.47;1.27;;;27.40;51.10;;;;;;4916504;28;88390;-78
2022/06/11 00:52:53;;;;;;;2.97;1.33;;;27.40;51.20;;;;;;4913346;28;90303;-78
2022/06/11 00:55:23;;;;;;;3.93;1.47;;;27.40;51.10;;;;;;4921610;28;89616;-77
2022/06/11 00:57:54;;;;;;;1.63;1.30;;;27.40;51.10;;;;;;4923463;28;88840;-77
2022/06/11 01:00:26;;;;;;;1.30;0.90;;;27.40;51.10;;;;;;4915464;28;88813;-77
2022/06/11 01:02:55;;;;;;;2.43;1.33;;;27.40;51.10;;;;;;4923768;28;88620;-77
2022/06/11 01:05:25;;;;;;;1.50;1.17;;;27.40;51.10;;;;;;4924631;28;90066;-79
2022/06/11 01:08:18;;;;;;;2.30;1.40;;;27.30;51.00;;;;;;4923630;28;89081;-78
2022/06/11 01:10:59;;;;;;;1.23;1.00;;;27.30;51.00;;;;;;4922960;28;90781;-77
2022/06/11 01:13:32;;;;;;;2.07;1.20;;;27.30;51.00;;;;;;4924084;28;88334;-77
2022/06/11 01:16:01;;;;;;;3.50;1.70;;;27.30;51.00;;;;;;4924184;28;90356;-75
2022/06/11 01:18:33;;;;;;;1.67;0.90;;;27.30;51.00;;;;;;4923653;28;90420;-77
2022/06/11 01:21:06;;;;;;;2.97;1.90;;;27.30;51.00;;;;;;4922762;28;88821;-76
2022/06/11 01:24:09;;;;;;;2.27;1.37;;;27.30;51.00;;;;;;4928137;28;88573;-77
2022/06/11 01:26:47;;;;;;;3.27;1.50;;;27.20;50.90;;;;;;4930924;28;90886;-77
2022/06/11 01:29:33;;;;;;;3.73;1.70;;;27.20;50.80;;;;;;4924235;28;93128;-77
2022/06/11 01:32:04;;;;;;;1.30;1.17;;;27.20;50.80;;;;;;4924107;28;88436;-77
2022/06/11 01:34:35;;;;;;;2.70;1.20;;;27.20;51.50;;;;;;4922475;28;88550;-77
2022/06/11 01:37:05;;;;;;;1.60;1.13;;;27.20;50.80;;;;;;4912106;28;91097;-77
2022/06/11 01:39:35;;;;;;;1.60;1.50;;;27.20;50.80;;;;;;4923701;28;92674;-77
2022/06/11 01:42:05;;;;;;;1.73;1.03;;;27.20;50.70;;;;;;4923376;28;88804;-77
2022/06/11 01:44:37;;;;;;;3.47;1.50;;;27.20;50.70;;;;;;4920610;28;88527;-78
2022/06/11 01:47:05;;;;;;;1.93;1.17;;;27.20;50.70;;;;;;4921965;28;89700;-77
2022/06/11 01:49:44;;;;;;;1.73;1.30;;;27.20;50.70;;;;;;4923213;28;88525;-77
2022/06/11 01:52:35;;;;;;;3.60;1.50;;;27.10;50.60;;;;;;4924327;28;88278;-78
2022/06/11 01:55:06;;;;;;;4.20;1.63;;;27.10;50.60;;;;;;4922988;28;88662;-78
2022/06/11 01:57:54;;;;;;;3.10;1.27;;;27.10;50.60;;;;;;4923902;28;89601;-77
2022/06/11 02:00:24;;;;;;;2.77;1.67;;;27.10;50.60;;;;;;4921746;28;90143;-77
2022/06/11 02:03:03;;;;;;;3.13;1.00;;;27.10;50.50;;;;;;4906872;28;90012;-77
2022/06/11 02:05:41;;;;;;;2.10;1.20;;;27.10;50.50;;;;;;4924109;28;88390;-77
2022/06/11 02:08:14;;;;;;;1.50;1.00;;;27.10;50.50;;;;;;4923900;28;91558;-79
2022/06/11 02:10:46;;;;;;;3.60;1.50;;;27.10;50.50;;;;;;4924442;28;89997;-77
2022/06/11 02:13:17;;;;;;;2.13;1.00;;;27.10;50.50;;;;;;4924062;28;90733;-77
2022/06/11 02:15:48;;;;;;;1.47;1.00;;;27.10;50.40;;;;;;4924938;28;88532;-77
2022/06/11 02:18:18;;;;;;;2.07;1.40;;;27.10;50.40;;;;;;4924004;28;92392;-78
2022/06/11 02:20:49;;;;;;;2.20;1.03;;;27.10;50.40;;;;;;4923093;28;89241;-77
2022/06/11 02:23:19;;;;;;;2.20;1.40;;;27.10;50.40;;;;;;4923654;28;89224;-77
2022/06/11 02:25:49;;;;;;;1.27;0.90;;;27.00;50.30;;;;;;4922745;28;88541;-78
2022/06/11 02:28:20;;;;;;;1.03;0.90;;;27.10;50.40;;;;;;4923711;28;89469;-77
2022/06/11 02:30:50;;;;;;;3.60;1.50;;;27.10;50.40;;;;;;4923854;28;89723;-77
2022/06/11 02:33:18;;;;;;;2.07;0.97;;;27.10;50.30;;;;;;4923033;28;88572;-77
2022/06/11 02:35:48;;;;;;;1.33;0.90;;;27.00;50.30;;;;;;4930706;28;88446;-77
2022/06/11 02:38:18;;;;;;;1.70;0.90;;;27.00;50.30;;;;;;4923227;28;90672;-78
2022/06/11 02:40:48;;;;;;;2.50;0.97;;;27.00;50.30;;;;;;4937695;28;89634;-77
2022/06/11 02:43:16;;;;;;;2.47;0.80;;;27.00;50.30;;;;;;4921875;28;88532;-77
2022/06/11 02:45:44;;;;;;;1.00;0.90;;;27.00;50.20;;;;;;4920144;28;88590;-77
2022/06/11 02:48:14;;;;;;;1.07;0.70;;;27.00;50.20;;;;;;4916481;28;91437;-78
2022/06/11 02:50:42;;;;;;;2.00;0.80;;;27.00;50.20;;;;;;4918217;28;89085;-77
2022/06/11 02:53:10;;;;;;;2.50;0.93;;;27.00;50.20;;;;;;4922683;28;88787;-78
2022/06/11 02:55:40;;;;;;;3.07;1.10;;;27.00;50.20;;;;;;4923426;28;88675;-77
2022/06/11 02:58:09;;;;;;;1.83;0.73;;;27.00;50.20;;;;;;4921294;28;89530;-77
2022/06/11 03:00:38;;;;;;;2.33;1.37;;;27.00;50.20;;;;;;4922695;28;90056;-77
2022/06/11 03:03:06;;;;;;;1.60;1.23;;;27.00;50.20;;;;;;4923199;28;89282;-76
2022/06/11 03:05:37;;;;;;;3.07;2.00;;;27.00;50.10;;;;;;4942335;28;88680;-77
2022/06/11 03:08:07;;;;;;;4.10;1.67;;;27.00;50.10;;;;;;4924156;28;90000;-77
2022/06/11 03:10:35;;;;;;;2.50;1.60;;;27.00;50.10;;;;;;4905068;28;89443;-77
2022/06/11 03:13:03;;;;;;;3.83;1.83;;;27.00;50.10;;;;;;4922239;28;89942;-77
2022/06/11 03:15:32;;;;;;;2.80;2.47;;;26.90;50.00;;;;;;4921632;28;88638;-77
2022/06/11 03:18:00;;;;;;;3.40;2.20;;;26.90;50.00;;;;;;4922010;28;89399;-78
2022/06/11 03:20:30;;;;;;;4.33;2.73;;;26.90;50.00;;;;;;4921837;28;90380;-77
2022/06/11 03:22:59;;;;;;;3.50;2.10;;;26.90;50.00;;;;;;4921224;28;88552;-77
2022/06/11 03:25:27;;;;;;;4.27;2.23;;;26.90;49.90;;;;;;4921894;28;88662;-77
2022/06/11 03:27:55;;;;;;;4.03;2.47;;;26.90;49.90;;;;;;4921923;28;90971;-77
2022/06/11 03:30:25;;;;;;;4.27;2.20;;;26.90;49.90;;;;;;4921659;28;89033;-77
2022/06/11 03:32:53;;;;;;;4.70;2.33;;;26.90;49.90;;;;;;4922337;28;88671;-77
2022/06/11 03:35:22;;;;;;;2.90;1.70;;;26.90;49.90;;;;;;4921906;28;88443;-77
2022/06/11 03:37:50;;;;;;;4.43;2.60;;;26.90;49.90;;;;;;4920317;28;91460;-77
2022/06/11 03:40:19;;;;;;;3.23;1.90;;;26.90;49.90;;;;;;4931719;28;88792;-77
2022/06/11 03:42:47;;;;;;;5.43;2.33;;;26.90;49.90;;;;;;4932932;28;89123;-77
2022/06/11 03:45:15;;;;;;;7.67;2.00;;;26.90;49.80;;;;;;4921877;28;88574;-77
2022/06/11 03:47:44;;;;;;;3.23;2.00;;;26.90;49.80;;;;;;4920916;28;91067;-77
2022/06/11 03:50:16;;;;;;;3.30;2.00;;;26.80;49.70;;;;;;4920753;28;89236;-77
2022/06/11 03:52:44;;;;;;;4.93;2.70;;;26.90;49.80;;;;;;4922274;28;88540;-77
2022/06/11 03:55:12;;;;;;;3.77;2.23;;;26.90;49.80;;;;;;4922809;28;89067;-77
2022/06/11 03:57:44;;;;;;;2.63;1.90;;;26.90;49.70;;;;;;4921291;28;90861;-77
2022/06/11 04:00:14;;;;;;;5.70;2.10;;;26.90;49.70;;;;;;4924482;28;89552;-77
2022/06/11 04:02:42;;;;;;;4.63;1.60;;;26.80;49.60;;;;;;4921215;28;89138;-76
2022/06/11 04:05:11;;;;;;;2.43;1.70;;;26.90;49.60;;;;;;4921108;28;88453;-76
2022/06/11 04:07:39;;;;;;;4.20;1.87;;;26.90;49.60;;;;;;4920451;28;90698;-77
2022/06/11 04:10:09;;;;;;;3.03;2.33;;;26.90;49.60;;;;;;4920343;28;89524;-77
2022/06/11 04:12:37;;;;;;;3.13;2.13;;;26.90;49.60;;;;;;4921309;28;88412;-77
2022/06/11 04:15:08;;;;;;;1.97;1.60;;;26.90;49.50;;;;;;4920705;28;88722;-76
2022/06/11 04:17:38;;;;;;;5.47;2.03;;;26.90;49.50;;;;;;4920251;28;89424;-77
2022/06/11 04:20:07;;;;;;;1.77;1.43;;;26.90;49.40;;;;;;4921265;28;89556;-77
2022/06/11 04:22:35;;;;;;;3.47;1.70;;;26.90;49.40;;;;;;4920869;28;90664;-77
2022/06/11 04:25:04;;;;;;;2.07;1.87;;;27.00;49.40;;;;;;4920424;28;88635;-77
2022/06/11 04:27:32;;;;;;;3.27;1.70;;;27.10;49.30;;;;;;4921193;28;93403;-77
2022/06/11 04:30:00;;;;;;;4.30;1.90;;;27.30;49.10;;;;;;4920627;28;89941;-76
2022/06/11 04:32:30;;;;;;;3.10;1.80;;;27.40;49.00;;;;;;4920938;28;91049;-77
2022/06/11 04:34:58;;;;;;;3.47;1.90;;;27.60;48.80;;;;;;4920388;28;88703;-76
2022/06/11 04:37:27;;;;;;;3.97;1.60;;;27.80;48.60;;;;;;4920440;28;89959;-78
2022/06/11 04:39:56;;;;;;;3.47;1.30;;;28.00;48.30;;;;;;4920828;28;89990;-76
2022/06/11 04:42:25;;;;;;;2.23;1.50;;;28.20;48.10;;;;;;4920375;28;89176;-76
2022/06/11 04:44:53;;;;;;;3.33;1.60;;;28.40;47.90;;;;;;4920089;28;88638;-76
2022/06/11 04:47:22;;;;;;;3.60;1.73;;;28.60;47.70;;;;;;4920443;28;91397;-76
2022/06/11 04:49:52;;;;;;;4.30;1.87;;;28.60;47.50;;;;;;4910069;28;88988;-77
2022/06/11 04:52:21;;;;;;;3.40;1.93;;;28.60;47.50;;;;;;4923193;28;88454;-77
2022/06/11 04:54:49;;;;;;;2.90;1.17;;;28.80;47.30;;;;;;4930919;28;88515;-77
2022/06/11 04:57:17;;;;;;;2.90;1.67;;;28.80;47.10;;;;;;4920414;28;89332;-77
2022/06/11 04:59:45;;;;;;;1.93;1.40;;;28.70;47.00;;;;;;4919885;28;89001;-77
2022/06/11 05:02:13;;;;;;;2.77;1.87;;;28.60;47.10;;;;;;4920258;28;88323;-77
2022/06/11 05:04:41;;;;;;;1.70;1.10;;;28.50;47.30;;;;;;4920088;28;88499;-78
2022/06/11 05:07:11;;;;;;;3.00;1.20;;;28.30;47.30;;;;;;4920244;28;89641;-76
2022/06/11 05:09:39;;;;;;;2.00;1.20;;;28.20;47.40;;;;;;4920924;28;93098;-77
2022/06/11 05:12:08;;;;;;;2.30;1.40;;;28.20;47.50;;;;;;4920702;28;88373;-77
2022/06/11 05:14:36;;;;;;;2.37;1.00;;;28.20;47.50;;;;;;4920891;28;90281;-77
2022/06/11 05:17:04;;;;;;;4.17;1.50;;;28.10;47.50;;;;;;4920152;28;89586;-77
2022/06/11 05:19:32;;;;;;;4.37;1.20;;;28.10;47.60;;;;;;4919312;28;90056;-76
2022/06/11 05:22:00;;;;;;;2.97;1.17;;;28.00;47.50;;;;;;4921025;28;92665;-77
2022/06/11 05:24:30;;;;;;;5.73;1.17;;;28.00;47.50;;;;;;4924534;28;88493;-77
2022/06/11 05:26:59;;;;;;;2.40;1.50;;;27.90;47.60;;;;;;4923203;28;90154;-77
2022/06/11 05:29:30;;;;;;;2.93;1.20;;;27.80;47.60;;;;;;4923277;28;89013;-77
2022/06/11 05:31:58;;;;;;;1.10;1.00;;;27.80;47.70;;;;;;4923699;28;88316;-77
2022/06/11 05:34:27;;;;;;;1.40;1.00;;;27.80;47.70;;;;;;4922525;28;88388;-77
2022/06/11 05:36:55;;;;;;;1.47;0.87;;;27.70;47.60;;;;;;4924074;28;90763;-77
2022/06/11 05:39:23;;;;;;;3.30;1.40;;;27.70;47.70;;;;;;4933876;28;89838;-77
2022/06/11 05:41:53;;;;;;;3.17;1.20;;;27.70;47.70;;;;;;4934061;28;88866;-77
2022/06/11 05:44:22;;;;;;;1.27;1.00;;;27.70;47.70;;;;;;4922727;28;88472;-77
2022/06/11 05:46:50;;;;;;;3.80;1.23;;;27.70;47.60;;;;;;4923353;28;90053;-77
2022/06/11 05:49:20;;;;;;;1.53;0.97;;;27.70;47.60;;;;;;4922924;28;89026;-76
2022/06/11 05:51:50;;;;;;;5.13;1.30;;;27.70;47.70;;;;;;4921175;28;88568;-76
2022/06/11 05:54:20;;;;;;;6.00;1.10;;;27.80;47.70;;;;;;4914697;28;89650;-76
2022/06/11 05:56:49;;;;;;;1.57;1.40;;;27.80;47.70;;;;;;4918119;28;90067;-76
2022/06/11 05:59:21;;;;;;;4.70;1.37;;;27.80;47.70;;;;;;4905831;28;90345;-77
2022/06/11 06:01:49;;;;;;;3.50;1.20;;;27.80;47.60;;;;;;4922160;28;89300;-77
2022/06/11 06:04:18;;;;;;;1.73;0.80;;;27.80;47.60;;;;;;4916332;28;88516;-77
2022/06/11 06:06:46;;;;;;;3.23;1.00;;;27.80;47.60;;;;;;4920229;28;89400;-77
2022/06/11 06:09:14;;;;;;;1.63;0.97;;;27.80;47.60;;;;;;4904520;28;89028;-77
2022/06/11 06:11:42;;;;;;;2.00;1.00;;;27.80;47.60;;;;;;4905862;28;91810;-77
2022/06/11 06:14:10;;;;;;;3.90;0.97;;;27.80;47.50;;;;;;4906438;28;88614;-77
2022/06/11 06:16:40;;;;;;;5.03;1.17;;;27.80;47.50;;;;;;4905158;28;89628;-77
2022/06/11 06:19:08;;;;;;;2.20;0.90;;;27.80;47.50;;;;;;4908429;28;89009;-77
2022/06/11 06:21:37;;;;;;;1.43;0.90;;;27.90;47.50;;;;;;4915272;28;89487;-76
2022/06/11 06:24:06;;;;;;;4.10;1.17;;;27.90;47.50;;;;;;4905527;28;88557;-77
2022/06/11 06:26:34;;;;;;;3.13;0.87;;;27.90;47.50;;;;;;4908190;28;89763;-77
2022/06/11 06:29:02;;;;;;;2.83;1.27;;;27.90;47.50;;;;;;4906904;28;88863;-77
2022/06/11 06:31:30;;;;;;;2.77;1.07;;;27.80;47.50;;;;;;4921728;28;88619;-78
2022/06/11 06:34:01;;;;;;;4.87;0.93;;;27.90;47.50;;;;;;4921313;28;88500;-77
2022/06/11 06:36:29;;;;;;;4.50;1.17;;;27.90;47.50;;;;;;4915653;28;88915;-77
2022/06/11 06:38:57;;;;;;;3.70;0.80;;;27.90;47.50;;;;;;4902151;28;89404;-77
2022/06/11 06:41:25;;;;;;;2.20;1.10;;;27.90;47.50;;;;;;4908490;28;88449;-77
2022/06/11 06:43:53;;;;;;;2.17;1.10;;;27.90;47.50;;;;;;4909371;28;88642;-77
2022/06/11 06:46:21;;;;;;;3.17;1.17;;;27.90;47.50;;;;;;4908272;28;92317;-77
2022/06/11 06:48:51;;;;;;;2.73;1.07;;;27.90;47.40;;;;;;4910061;28;88603;-77
2022/06/11 06:51:20;;;;;;;1.43;0.80;;;27.90;47.40;;;;;;4912197;28;88329;-77
2022/06/11 06:53:49;;;;;;;3.53;0.73;;;27.90;47.40;;;;;;4909275;28;88658;-77
2022/06/11 06:56:17;;;;;;;3.53;0.97;;;27.90;47.40;;;;;;4903114;28;89824;-76
2022/06/11 06:58:45;;;;;;;2.43;1.10;;;27.90;47.40;;;;;;4907257;28;89014;-77
2022/06/11 07:01:13;;;;;;;1.50;0.90;;;27.90;47.40;;;;;;4888775;28;90525;-78
2022/06/11 07:03:42;;;;;;;2.33;0.97;;;27.90;47.40;;;;;;4908866;28;88507;-77
2022/06/11 07:06:32;;;;;;;4.10;0.80;;;27.90;47.30;;;;;;4901948;28;89308;-77
2022/06/11 07:09:00;;;;;;;2.53;1.20;;;27.90;47.40;;;;;;4902699;28;89187;-77
2022/06/11 07:11:28;;;;;;;1.37;0.63;;;28.00;47.40;;;;;;4917369;28;89070;-78
2022/06/11 07:13:56;;;;;;;1.53;1.00;;;28.00;47.40;;;;;;4922049;28;88567;-77
2022/06/11 07:16:28;;;;;;;1.23;0.73;;;28.00;47.40;;;;;;4921786;28;89893;-77
2022/06/11 07:18:57;;;;;;;2.60;0.80;;;28.00;47.40;;;;;;4922019;28;90065;-78
2022/06/11 07:21:35;;;;;;;2.50;0.77;;;28.00;47.40;;;;;;4921435;28;88401;-78
2022/06/11 07:24:06;;;;;;;2.20;0.80;;;28.00;47.30;;;;;;4929850;28;88589;-77
2022/06/11 07:26:36;;;;;;;2.50;1.00;;;28.00;47.40;;;;;;4921875;28;90567;-78
2022/06/11 07:29:07;;;;;;;1.60;0.80;;;28.00;47.30;;;;;;4920478;28;89217;-78
2022/06/11 07:31:36;;;;;;;1.80;0.97;;;28.00;47.30;;;;;;4922282;28;88933;-77
2022/06/11 07:34:04;;;;;;;4.03;1.13;;;28.00;47.30;;;;;;4922092;28;88606;-76
2022/06/11 07:36:34;;;;;;;1.80;0.80;;;28.00;47.30;;;;;;4923898;28;92814;-77
2022/06/11 07:39:02;;;;;;;2.07;0.90;;;28.00;47.30;;;;;;4920735;28;89364;-75
2022/06/11 07:41:31;;;;;;;4.47;1.00;;;28.00;47.30;;;;;;4908535;28;88576;-77
2022/06/11 07:43:59;;;;;;;2.37;0.73;;;28.00;47.30;;;;;;4905218;28;90029;-78
2022/06/11 07:46:27;;;;;;;2.63;1.03;;;28.00;47.30;;;;;;4903250;28;89462;-78
2022/06/11 07:48:55;;;;;;;1.20;0.70;;;28.00;47.30;;;;;;4901678;28;88490;-77
2022/06/11 07:51:23;;;;;;;1.37;0.70;;;28.00;47.30;;;;;;4911548;28;89346;-76
2022/06/11 07:53:53;;;;;;;1.27;0.90;;;28.00;47.30;;;;;;4910377;28;88707;-77
2022/06/11 07:56:21;;;;;;;5.43;1.20;;;28.00;47.30;;;;;;4915827;28;90207;-77
2022/06/11 07:58:49;;;;;;;5.20;1.40;;;28.00;47.30;;;;;;4915395;28;89017;-76
2022/06/11 08:01:17;;;;;;;2.17;1.30;;;28.00;47.30;;;;;;4910369;28;88591;-77
2022/06/11 08:03:45;;;;;;;3.47;1.83;;;28.00;47.30;;;;;;4917167;28;88685;-77
2022/06/11 08:06:14;;;;;;;3.73;2.10;;;28.00;47.30;;;;;;4915734;28;90527;-73
2022/06/11 08:08:42;;;;;;;5.10;2.47;;;28.00;47.30;;;;;;4904546;28;91520;-74
2022/06/11 08:11:11;;;;;;;6.40;2.33;;;28.00;47.30;;;;;;4903301;28;88276;-77
2022/06/11 08:13:39;;;;;;;4.03;2.23;;;28.00;47.40;;;;;;4908617;28;88519;-76
2022/06/11 08:16:10;;;;;;;7.20;3.17;;;28.00;47.40;;;;;;4908826;28;89309;-74
2022/06/11 08:18:39;;;;;;;4.70;2.60;;;28.00;47.50;;;;;;4901806;28;91480;-76
2022/06/11 08:21:08;;;;;;;7.93;3.37;;;28.10;47.70;;;;;;4902272;28;88577;-74
2022/06/11 08:23:37;;;;;;;7.40;3.20;;;28.10;47.80;;;;;;4908677;28;89420;-75
2022/06/11 08:26:06;;;;;;;4.93;3.13;;;28.10;47.80;;;;;;4910233;28;90628;-76
2022/06/11 08:28:35;;;;;;;5.40;3.00;;;28.10;47.80;;;;;;4911195;28;88482;-76
2022/06/11 08:31:04;;;;;;;7.30;3.03;;;28.10;47.90;;;;;;4903498;28;89527;-75
2022/06/11 08:33:33;;;;;;;5.30;2.80;;;28.20;48.00;;;;;;4906450;28;88574;-76
2022/06/11 08:36:02;;;;;;;8.43;3.77;;;28.20;48.00;;;;;;4912026;28;89849;-77
2022/06/11 08:38:30;;;;;;;5.70;3.40;;;28.20;48.00;;;;;;4918872;28;90343;-76
2022/06/11 08:40:58;;;;;;;4.30;2.90;;;28.20;48.10;;;;;;4919058;28;89761;-76
2022/06/11 08:43:27;;;;;;;4.93;2.90;;;28.20;48.20;;;;;;4920404;28;88686;-76
2022/06/11 08:45:59;;;;;;;4.73;2.87;;;28.20;48.10;;;;;;4919982;28;89472;-76
2022/06/11 08:48:36;;;;;;;6.60;2.77;;;28.20;48.10;;;;;;4920478;28;91920;-76
2022/06/11 08:51:08;;;;;;;5.40;2.57;;;28.20;48.00;;;;;;4920716;28;88330;-76
2022/06/11 08:53:37;;;;;;;5.13;2.97;;;28.20;47.90;;;;;;4919389;28;88662;-75
2022/06/11 08:56:06;;;;;;;8.23;2.73;;;28.20;47.90;;;;;;4914100;28;90846;-76
2022/06/11 08:58:45;;;;;;;7.93;2.80;;;28.20;47.90;;;;;;4911400;28;89447;-76
2022/06/11 09:01:18;;;;;;;3.97;2.67;;;28.20;47.80;;;;;;4915195;28;90840;-70
2022/06/11 09:03:55;;;;;;;4.63;2.60;;;28.20;47.80;;;;;;4917278;28;88678;-69
2022/06/11 09:06:37;;;;;;;6.93;2.50;;;28.20;47.80;;;;;;4916750;28;93822;-76
2022/06/11 09:09:08;;;;;;;8.33;2.83;;;28.20;48.40;;;;;;4918085;28;89089;-76
2022/06/11 09:11:48;;;;;;;6.47;3.50;;;28.20;47.80;;;;;;4919366;28;88488;-76
2022/06/11 09:14:35;;;;;;;3.03;2.50;;;28.20;47.80;;;;;;4920915;28;88786;-76
2022/06/11 09:17:21;;;;;;;4.73;2.30;;;28.20;47.80;;;;;;4927277;28;88560;-76
2022/06/11 09:19:57;;;;;;;5.63;2.73;;;28.20;47.70;;;;;;4928223;28;91039;-76
2022/06/11 09:22:34;;;;;;;4.57;1.97;;;28.20;47.60;;;;;;4930232;28;88486;-76
2022/06/11 09:25:19;;;;;;;4.03;2.27;;;28.20;47.50;;;;;;4929732;28;88633;-77
2022/06/11 09:27:50;;;;;;;4.00;2.83;;;28.20;47.50;;;;;;4926552;28;89499;-76
2022/06/11 09:30:21;;;;;;;3.93;2.07;;;28.20;48.10;;;;;;4924324;28;93083;-76
2022/06/11 09:32:52;;;;;;;4.53;2.10;;;28.20;47.50;;;;;;4926405;28;88566;-77
2022/06/11 09:35:21;;;;;;;6.37;2.40;;;28.20;47.50;;;;;;4928881;28;88695;-76
2022/06/11 09:38:03;;;;;;;5.23;2.23;;;28.30;47.60;;;;;;4923954;28;89675;-76
2022/06/11 09:40:37;;;;;;;3.73;1.93;;;28.30;47.60;;;;;;4931578;28;88627;-76
2022/06/11 09:43:26;;;;;;;6.43;2.30;;;28.20;47.50;;;;;;4929707;28;88803;-74
2022/06/11 09:45:59;;;;;;;4.87;2.03;;;28.20;47.50;;;;;;4928450;28;88543;-76
2022/06/11 09:48:35;;;;;;;3.43;1.67;;;28.30;47.60;;;;;;4928655;28;90535;-75
2022/06/11 09:51:07;;;;;;;4.53;2.13;;;28.30;47.60;;;;;;4928889;28;88528;-76
2022/06/11 09:53:48;;;;;;;3.20;1.70;;;28.30;47.60;;;;;;4925792;28;88932;-76
2022/06/11 09:56:19;;;;;;;2.73;1.63;;;28.30;47.70;;;;;;4927901;28;88762;-77
2022/06/11 09:58:52;;;;;;;4.93;2.07;;;28.30;47.70;;;;;;4927914;28;89845;-76
2022/06/11 10:01:23;;;;;;;3.93;1.90;;;28.30;47.70;;;;;;4931116;28;88533;-76
2022/06/11 10:03:54;;;;;;;9.17;2.20;;;28.30;47.70;;;;;;4931328;28;88433;-76
2022/06/11 10:06:25;;;;;;;6.83;2.23;;;28.30;47.70;;;;;;4933566;28;88429;-76
2022/06/11 10:08:54;;;;;;;3.70;1.70;;;28.30;47.70;;;;;;4927419;28;89681;-77
2022/06/11 10:11:24;;;;;;;2.37;1.57;;;28.30;47.60;;;;;;4935117;28;90351;-76
2022/06/11 10:13:55;;;;;;;4.60;1.63;;;28.30;47.60;;;;;;4927204;28;88632;-76
2022/06/11 10:16:32;;;;;;;5.43;2.17;;;28.30;47.60;;;;;;4903654;28;88634;-76
2022/06/11 10:19:08;;;;;;;6.83;2.20;;;28.30;47.60;;;;;;4925028;28;89810;-76
2022/06/11 10:21:38;;;;;;;5.90;2.03;;;28.40;47.60;;;;;;4919715;28;92440;-76
2022/06/11 10:24:07;;;;;;;6.23;2.27;;;28.40;47.50;;;;;;4919968;28;89473;-76
2022/06/11 10:26:37;;;;;;;2.43;1.53;;;28.50;47.60;;;;;;4913840;28;88909;-76
2022/06/11 10:29:08;;;;;;;4.27;1.67;;;28.50;47.60;;;;;;4912319;28;90052;-76
2022/06/11 10:31:38;;;;;;;4.30;2.20;;;28.50;47.50;;;;;;4904063;28;88764;-76
2022/06/11 10:34:10;;;;;;;4.97;1.67;;;28.50;47.50;;;;;;4907075;28;89411;-76
2022/06/11 10:36:40;;;;;;;4.97;1.73;;;28.60;47.50;;;;;;4903662;28;88875;-76
2022/06/11 10:39:12;;;;;;;2.70;1.53;;;28.60;47.50;;;;;;4922896;28;89841;-76
2022/06/11 10:41:42;;;;;;;5.03;1.47;;;28.60;47.50;;;;;;4940893;28;88832;-76
2022/06/11 10:44:18;;;;;;;6.30;1.30;;;28.60;47.50;;;;;;4939438;28;88831;-79
2022/06/11 10:46:46;;;;;;;3.37;1.43;;;28.60;47.50;;;;;;4925537;28;88547;-77
2022/06/11 10:49:17;;;;;;;5.13;2.13;;;28.60;47.50;;;;;;4922026;28;90650;-79
2022/06/11 10:51:52;;;;;;;6.70;1.93;;;28.60;47.50;;;;;;4922342;28;89837;-79
2022/06/11 10:54:21;;;;;;;5.73;1.80;;;28.70;47.50;;;;;;4922679;28;88899;-78
2022/06/11 10:56:51;;;;;;;6.77;3.00;;;28.70;47.60;;;;;;4923681;28;88456;-78
2022/06/11 10:59:22;;;;;;;7.57;2.90;;;28.70;47.60;;;;;;4922305;28;89563;-78
2022/06/11 11:01:54;;;;;;;6.03;2.77;;;28.70;47.60;;;;;;4922990;28;93339;-77
2022/06/11 11:04:30;;;;;;;12.33;3.20;;;28.70;47.60;;;;;;4923708;28;88645;-78
2022/06/11 11:07:24;;;;;;;7.20;3.27;;;28.70;47.60;;;;;;4922119;28;88635;-80
2022/06/11 11:09:57;;;;;;;7.93;3.13;;;28.70;47.60;;;;;;4908190;28;89661;-78
2022/06/11 11:12:27;;;;;;;17.10;4.40;;;28.70;47.60;;;;;;4921205;28;89677;-77
2022/06/11 11:15:00;;;;;;;6.53;3.30;;;28.70;47.80;;;;;;4921352;28;88909;-78
2022/06/11 11:17:29;;;;;;;9.60;3.50;;;28.70;47.90;;;;;;4923408;28;88552;-78
2022/06/11 11:22:53;;;;;;;8.47;3.00;;;28.70;48.40;;;;;;4923411;28;90144;-78
2022/06/11 11:25:25;;;;;;;8.43;3.50;;;28.80;47.80;;;;;;4923361;28;88364;-78
2022/06/11 11:27:53;;;;;;;7.13;3.30;;;28.80;47.90;;;;;;4923891;28;88647;-78
2022/06/11 11:30:28;;;;;;;7.97;2.70;;;28.80;47.90;;;;;;4924637;28;88450;-78
2022/06/11 11:32:56;;;;;;;7.73;3.33;;;28.80;47.80;;;;;;4922172;28;89015;-78
2022/06/11 11:35:27;;;;;;;6.03;3.27;;;28.80;47.80;;;;;;4921154;28;88408;-78
2022/06/11 11:37:58;;;;;;;7.67;3.67;;;28.80;47.80;;;;;;4936113;28;88775;-78
2022/06/11 11:40:28;;;;;;;8.90;3.13;;;28.80;47.80;;;;;;4940830;28;93296;-77
2022/06/11 11:42:56;;;;;;;7.67;3.30;;;28.80;47.80;;;;;;4921583;28;89372;-79
2022/06/11 11:45:25;;;;;;;6.87;4.10;;;28.80;47.80;;;;;;4917662;28;88630;-79
2022/06/11 11:47:56;;;;;;;5.33;3.57;;;28.80;47.70;;;;;;4921085;28;88668;-81
2022/06/11 11:50:28;;;;;;;47.10;26.13;;;28.80;47.70;;;;;;4921017;28;90723;-80
2022/06/11 11:52:59;;;;;;;105.30;55.73;;;28.90;47.70;;;;;;4916141;28;91818;-80
2022/06/11 11:55:28;;;;;;;42.77;27.90;;;29.00;47.70;;;;;;4928410;28;91284;-78
2022/06/11 11:57:59;;;;;;;34.93;22.13;;;29.00;47.60;;;;;;4921752;28;88576;-80
2022/06/11 12:00:30;;;;;;;24.47;17.20;;;29.00;47.60;;;;;;4920239;28;89485;-79
2022/06/11 12:03:00;;;;;;;21.00;13.67;;;29.00;47.50;;;;;;4919765;28;88541;-78
2022/06/11 12:05:32;;;;;;;26.47;13.40;;;29.00;47.50;;;;;;4923103;28;90350;-78
2022/06/11 12:08:01;;;;;;;19.40;11.47;;;29.10;47.50;;;;;;4921476;28;88714;-79
2022/06/11 12:10:32;;;;;;;20.37;10.77;;;29.00;47.40;;;;;;4918522;28;90187;-81
2022/06/11 12:13:00;;;;;;;14.77;8.67;;;29.10;47.50;;;;;;4917773;28;90188;-79
2022/06/11 12:15:29;;;;;;;12.83;8.30;;;29.10;47.50;;;;;;4918205;28;88542;-77
2022/06/11 12:17:59;;;;;;;13.53;8.30;;;29.10;47.50;;;;;;4919921;28;88979;-79
2022/06/11 12:20:35;;;;;;;11.60;6.93;;;29.20;47.50;;;;;;4922290;28;93337;-78
2022/06/11 12:23:15;;;;;;;14.23;6.30;;;29.20;47.50;;;;;;4919677;28;88952;-77
2022/06/11 12:25:46;;;;;;;14.40;6.27;;;29.10;47.40;;;;;;4921826;28;88908;-77
2022/06/11 12:28:15;;;;;;;10.43;4.80;;;29.20;47.40;;;;;;4919987;28;88358;-77
2022/06/11 12:30:43;;;;;;;8.90;4.20;;;29.10;47.10;;;;;;4919351;28;90290;-77
2022/06/11 12:33:16;;;;;;;6.37;3.90;;;29.10;47.00;;;;;;4920587;28;89948;-77
2022/06/11 12:35:51;;;;;;;7.40;3.67;;;29.10;46.80;;;;;;4920792;28;88592;-77
2022/06/11 12:38:25;;;;;;;8.87;3.93;;;29.10;46.50;;;;;;4916175;28;88897;-78
2022/06/11 12:40:57;;;;;;;8.33;3.90;;;29.10;46.50;;;;;;4915110;28;90976;-77
2022/06/11 12:43:37;;;;;;;8.43;4.27;;;29.10;46.40;;;;;;4922428;28;88967;-77
2022/06/11 12:46:13;;;;;;;9.10;4.30;;;29.10;46.40;;;;;;4931738;28;88790;-77
2022/06/11 12:48:50;;;;;;;4.33;3.03;;;29.10;46.30;;;;;;4927955;28;88392;-77
2022/06/11 12:51:24;;;;;;;7.17;3.07;;;29.20;46.90;;;;;;4922391;28;89763;-77
2022/06/11 12:54:00;;;;;;;7.60;3.73;;;29.10;46.00;;;;;;4915656;28;90285;-78
2022/06/11 12:56:47;;;;;;;3.93;2.50;;;29.10;45.70;;;;;;4923618;28;88968;-77
2022/06/11 12:59:44;;;;;;;4.70;3.13;;;29.10;45.60;;;;;;4916297;28;88734;-78
2022/06/11 13:02:18;;;;;;;4.17;2.23;;;29.10;45.30;;;;;;4919131;28;89590;-77
2022/06/11 13:05:18;;;;;;;6.07;2.40;;;29.10;45.10;;;;;;4927938;28;90389;-75
2022/06/11 13:07:50;;;;;;;5.93;2.97;;;29.10;45.00;;;;;;4926134;28;88640;-78